sensor_id;sensor_type;location;lat;lon;timestamp;P1;durP1;ratioP1;P2;durP2;ratioP2
21402;SDS011;10862;51.886;17.078;2022-11-18T00:01:29;32.70;;;17.77;;
21402;SDS011;10862;51.886;17.078;2022-11-18T00:03:55;38.13;;;20.00;;
21402;SDS011;10862;51.886;17.078;2022-11-18T00:06:22;31.97;;;20.30;;
21402;SDS011;10862;51.886;17.078;2022-11-18T00:08:49;24.83;;;17.67;;
21402;SDS011;10862;51.886;17.078;2022-11-18T00:11:20;30.17;;;17.60;;
21402;SDS011;10862;51.886;17.078;2022-11-18T00:14:09;23.17;;;16.33;;
21402;SDS011;10862;51.886;17.078;2022-11-18T00:16:50;31.03;;;16.73;;
21402;SDS011;10862;51.886;17.078;2022-11-18T00:19:19;19.93;;;14.87;;
21402;SDS011;10862;51.886;17.078;2022-11-18T00:21:50;38.23;;;21.13;;
21402;SDS011;10862;51.886;17.078;2022-11-18T00:24:16;63.83;;;28.13;;
21402;SDS011;10862;51.886;17.078;2022-11-18T00:26:42;37.90;;;22.60;;
21402;SDS011;10862;51.886;17.078;2022-11-18T00:29:08;32.80;;;18.10;;
21402;SDS011;10862;51.886;17.078;2022-11-18T00:31:34;41.50;;;23.77;;
21402;SDS011;10862;51.886;17.078;2022-11-18T00:34:00;42.47;;;22.90;;
21402;SDS011;10862;51.886;17.078;2022-11-18T00:36:27;44.87;;;24.90;;
21402;SDS011;10862;51.886;17.078;2022-11-18T00:38:53;48.07;;;24.83;;
21402;SDS011;10862;51.886;17.078;2022-11-18T00:41:18;65.83;;;29.20;;
21402;SDS011;10862;51.886;17.078;2022-11-18T00:43:44;52.10;;;25.77;;
21402;SDS011;10862;51.886;17.078;2022-11-18T00:46:10;51.80;;;26.73;;
21402;SDS011;10862;51.886;17.078;2022-11-18T00:48:37;53.30;;;26.67;;
21402;SDS011;10862;51.886;17.078;2022-11-18T00:51:10;46.47;;;26.53;;
21402;SDS011;10862;51.886;17.078;2022-11-18T00:53:40;50.43;;;24.43;;
21402;SDS011;10862;51.886;17.078;2022-11-18T00:56:06;50.93;;;25.33;;
21402;SDS011;10862;51.886;17.078;2022-11-18T00:58:32;42.67;;;24.63;;
21402;SDS011;10862;51.886;17.078;2022-11-18T01:00:58;50.30;;;25.10;;
21402;SDS011;10862;51.886;17.078;2022-11-18T01:03:24;47.10;;;25.73;;
21402;SDS011;10862;51.886;17.078;2022-11-18T01:05:51;48.83;;;25.27;;
21402;SDS011;10862;51.886;17.078;2022-11-18T01:08:19;47.37;;;27.30;;
21402;SDS011;10862;51.886;17.078;2022-11-18T01:10:45;51.73;;;25.67;;
21402;SDS011;10862;51.886;17.078;2022-11-18T01:13:13;47.50;;;24.50;;
21402;SDS011;10862;51.886;17.078;2022-11-18T01:18:21;44.57;;;23.73;;
21402;SDS011;10862;51.886;17.078;2022-11-18T01:20:48;42.00;;;22.47;;
21402;SDS011;10862;51.886;17.078;2022-11-18T01:23:14;38.60;;;22.50;;
21402;SDS011;10862;51.886;17.078;2022-11-18T01:25:40;43.80;;;23.13;;
21402;SDS011;10862;51.886;17.078;2022-11-18T01:28:08;46.90;;;23.27;;
21402;SDS011;10862;51.886;17.078;2022-11-18T01:30:35;51.80;;;24.37;;
21402;SDS011;10862;51.886;17.078;2022-11-18T01:33:03;48.53;;;24.50;;
21402;SDS011;10862;51.886;17.078;2022-11-18T01:35:34;46.10;;;25.37;;
21402;SDS011;10862;51.886;17.078;2022-11-18T01:38:00;40.17;;;23.40;;
21402;SDS011;10862;51.886;17.078;2022-11-18T01:40:26;50.20;;;25.03;;
21402;SDS011;10862;51.886;17.078;2022-11-18T01:42:53;47.53;;;26.20;;
21402;SDS011;10862;51.886;17.078;2022-11-18T01:50:28;45.53;;;24.13;;
21402;SDS011;10862;51.886;17.078;2022-11-18T01:52:56;40.80;;;24.40;;
21402;SDS011;10862;51.886;17.078;2022-11-18T01:55:28;42.27;;;24.13;;
21402;SDS011;10862;51.886;17.078;2022-11-18T01:58:01;43.47;;;23.00;;
21402;SDS011;10862;51.886;17.078;2022-11-18T02:00:31;39.57;;;22.53;;
21402;SDS011;10862;51.886;17.078;2022-11-18T02:02:57;42.60;;;21.87;;
21402;SDS011;10862;51.886;17.078;2022-11-18T02:05:24;36.00;;;21.00;;
21402;SDS011;10862;51.886;17.078;2022-11-18T02:07:50;36.33;;;21.13;;
21402;SDS011;10862;51.886;17.078;2022-11-18T02:10:18;39.80;;;21.10;;
21402;SDS011;10862;51.886;17.078;2022-11-18T02:12:45;37.10;;;20.70;;
21402;SDS011;10862;51.886;17.078;2022-11-18T02:15:11;40.13;;;21.53;;
21402;SDS011;10862;51.886;17.078;2022-11-18T02:25:30;34.43;;;20.73;;
21402;SDS011;10862;51.886;17.078;2022-11-18T02:31:30;32.73;;;18.87;;
21402;SDS011;10862;51.886;17.078;2022-11-18T02:34:07;25.13;;;16.53;;
21402;SDS011;10862;51.886;17.078;2022-11-18T02:36:51;33.43;;;20.50;;
21402;SDS011;10862;51.886;17.078;2022-11-18T02:42:17;37.70;;;19.97;;
21402;SDS011;10862;51.886;17.078;2022-11-18T02:44:45;36.37;;;20.07;;
21402;SDS011;10862;51.886;17.078;2022-11-18T02:47:14;42.10;;;20.87;;
21402;SDS011;10862;51.886;17.078;2022-11-18T02:49:43;31.47;;;18.23;;
21402;SDS011;10862;51.886;17.078;2022-11-18T02:52:14;36.87;;;22.03;;
21402;SDS011;10862;51.886;17.078;2022-11-18T02:54:41;33.80;;;20.83;;
21402;SDS011;10862;51.886;17.078;2022-11-18T02:57:10;29.30;;;18.20;;
21402;SDS011;10862;51.886;17.078;2022-11-18T02:59:37;33.50;;;17.83;;
21402;SDS011;10862;51.886;17.078;2022-11-18T03:02:03;33.07;;;19.00;;
21402;SDS011;10862;51.886;17.078;2022-11-18T03:04:28;27.93;;;17.67;;
21402;SDS011;10862;51.886;17.078;2022-11-18T03:07:05;32.43;;;20.63;;
21402;SDS011;10862;51.886;17.078;2022-11-18T03:09:38;30.37;;;19.07;;
21402;SDS011;10862;51.886;17.078;2022-11-18T03:15:22;27.70;;;17.43;;
21402;SDS011;10862;51.886;17.078;2022-11-18T03:18:10;31.93;;;20.17;;
21402;SDS011;10862;51.886;17.078;2022-11-18T03:23:45;33.93;;;17.30;;
21402;SDS011;10862;51.886;17.078;2022-11-18T03:26:24;26.53;;;16.00;;
21402;SDS011;10862;51.886;17.078;2022-11-18T03:31:57;28.07;;;17.07;;
21402;SDS011;10862;51.886;17.078;2022-11-18T03:34:33;28.23;;;16.23;;
21402;SDS011;10862;51.886;17.078;2022-11-18T03:37:02;28.03;;;17.20;;
21402;SDS011;10862;51.886;17.078;2022-11-18T03:39:32;26.10;;;17.33;;
21402;SDS011;10862;51.886;17.078;2022-11-18T03:42:03;25.80;;;17.57;;
21402;SDS011;10862;51.886;17.078;2022-11-18T03:44:37;27.67;;;17.40;;
21402;SDS011;10862;51.886;17.078;2022-11-18T03:47:11;33.20;;;18.03;;
21402;SDS011;10862;51.886;17.078;2022-11-18T03:49:42;28.10;;;16.17;;
21402;SDS011;10862;51.886;17.078;2022-11-18T03:52:17;23.80;;;15.83;;
21402;SDS011;10862;51.886;17.078;2022-11-18T03:54:46;25.63;;;15.70;;
21402;SDS011;10862;51.886;17.078;2022-11-18T03:57:23;21.40;;;15.93;;
21402;SDS011;10862;51.886;17.078;2022-11-18T03:59:57;25.37;;;15.97;;
21402;SDS011;10862;51.886;17.078;2022-11-18T04:02:27;26.00;;;15.77;;
21402;SDS011;10862;51.886;17.078;2022-11-18T04:04:54;21.07;;;13.70;;
21402;SDS011;10862;51.886;17.078;2022-11-18T04:10:05;23.77;;;14.63;;
21402;SDS011;10862;51.886;17.078;2022-11-18T04:12:38;21.37;;;13.97;;
21402;SDS011;10862;51.886;17.078;2022-11-18T04:15:09;23.53;;;16.43;;
21402;SDS011;10862;51.886;17.078;2022-11-18T04:17:34;26.20;;;15.43;;
21402;SDS011;10862;51.886;17.078;2022-11-18T04:20:00;25.40;;;15.87;;
21402;SDS011;10862;51.886;17.078;2022-11-18T04:22:26;24.43;;;15.20;;
21402;SDS011;10862;51.886;17.078;2022-11-18T04:24:51;23.60;;;13.87;;
21402;SDS011;10862;51.886;17.078;2022-11-18T04:27:17;25.67;;;14.60;;
21402;SDS011;10862;51.886;17.078;2022-11-18T04:29:42;29.27;;;16.13;;
21402;SDS011;10862;51.886;17.078;2022-11-18T04:32:08;24.30;;;15.07;;
21402;SDS011;10862;51.886;17.078;2022-11-18T04:34:33;28.70;;;16.73;;
21402;SDS011;10862;51.886;17.078;2022-11-18T04:36:59;20.60;;;14.73;;
21402;SDS011;10862;51.886;17.078;2022-11-18T04:39:24;33.63;;;18.57;;
21402;SDS011;10862;51.886;17.078;2022-11-18T04:41:50;37.00;;;20.77;;
21402;SDS011;10862;51.886;17.078;2022-11-18T04:44:31;34.50;;;23.07;;
21402;SDS011;10862;51.886;17.078;2022-11-18T04:46:59;27.73;;;18.13;;
21402;SDS011;10862;51.886;17.078;2022-11-18T04:49:26;43.13;;;28.67;;
21402;SDS011;10862;51.886;17.078;2022-11-18T04:51:52;29.00;;;19.57;;
21402;SDS011;10862;51.886;17.078;2022-11-18T04:54:19;26.13;;;16.67;;
21402;SDS011;10862;51.886;17.078;2022-11-18T04:56:45;24.10;;;17.63;;
21402;SDS011;10862;51.886;17.078;2022-11-18T04:59:11;31.50;;;19.67;;
21402;SDS011;10862;51.886;17.078;2022-11-18T05:01:38;34.27;;;23.23;;
21402;SDS011;10862;51.886;17.078;2022-11-18T05:04:03;36.30;;;27.73;;
21402;SDS011;10862;51.886;17.078;2022-11-18T05:06:32;34.53;;;25.97;;
21402;SDS011;10862;51.886;17.078;2022-11-18T05:08:58;33.60;;;30.23;;
21402;SDS011;10862;51.886;17.078;2022-11-18T05:11:25;33.27;;;29.50;;
21402;SDS011;10862;51.886;17.078;2022-11-18T05:14:09;39.07;;;35.37;;
21402;SDS011;10862;51.886;17.078;2022-11-18T05:16:35;38.80;;;35.03;;
21402;SDS011;10862;51.886;17.078;2022-11-18T05:19:02;38.50;;;34.90;;
21402;SDS011;10862;51.886;17.078;2022-11-18T05:21:28;28.13;;;21.63;;
21402;SDS011;10862;51.886;17.078;2022-11-18T05:23:54;33.70;;;25.40;;
21402;SDS011;10862;51.886;17.078;2022-11-18T05:26:19;27.17;;;21.93;;
21402;SDS011;10862;51.886;17.078;2022-11-18T05:28:45;28.17;;;22.23;;
21402;SDS011;10862;51.886;17.078;2022-11-18T05:31:11;27.40;;;19.77;;
21402;SDS011;10862;51.886;17.078;2022-11-18T05:33:38;29.63;;;21.63;;
21402;SDS011;10862;51.886;17.078;2022-11-18T05:36:08;30.60;;;21.63;;
21402;SDS011;10862;51.886;17.078;2022-11-18T05:38:36;44.03;;;26.10;;
21402;SDS011;10862;51.886;17.078;2022-11-18T05:41:01;31.97;;;23.80;;
21402;SDS011;10862;51.886;17.078;2022-11-18T05:43:28;29.33;;;20.70;;
21402;SDS011;10862;51.886;17.078;2022-11-18T05:45:54;34.17;;;24.57;;
21402;SDS011;10862;51.886;17.078;2022-11-18T05:48:19;37.17;;;27.40;;
21402;SDS011;10862;51.886;17.078;2022-11-18T05:50:46;22.73;;;20.60;;
21402;SDS011;10862;51.886;17.078;2022-11-18T05:53:13;26.53;;;21.43;;
21402;SDS011;10862;51.886;17.078;2022-11-18T05:55:50;30.33;;;19.83;;
21402;SDS011;10862;51.886;17.078;2022-11-18T05:58:24;27.83;;;20.03;;
21402;SDS011;10862;51.886;17.078;2022-11-18T06:00:50;31.27;;;20.57;;
21402;SDS011;10862;51.886;17.078;2022-11-18T06:03:24;14.10;;;10.97;;
21402;SDS011;10862;51.886;17.078;2022-11-18T06:05:53;32.00;;;20.63;;
21402;SDS011;10862;51.886;17.078;2022-11-18T06:08:20;37.03;;;22.67;;
21402;SDS011;10862;51.886;17.078;2022-11-18T06:10:48;30.27;;;18.90;;
21402;SDS011;10862;51.886;17.078;2022-11-18T06:13:17;32.87;;;20.87;;
21402;SDS011;10862;51.886;17.078;2022-11-18T06:15:47;31.10;;;18.73;;
21402;SDS011;10862;51.886;17.078;2022-11-18T06:18:17;28.70;;;19.20;;
21402;SDS011;10862;51.886;17.078;2022-11-18T06:20:48;30.00;;;20.23;;
21402;SDS011;10862;51.886;17.078;2022-11-18T06:23:16;32.53;;;21.17;;
21402;SDS011;10862;51.886;17.078;2022-11-18T06:25:42;34.03;;;22.40;;
21402;SDS011;10862;51.886;17.078;2022-11-18T06:28:08;34.17;;;23.70;;
21402;SDS011;10862;51.886;17.078;2022-11-18T06:30:36;30.30;;;19.83;;
21402;SDS011;10862;51.886;17.078;2022-11-18T06:33:02;29.97;;;21.37;;
21402;SDS011;10862;51.886;17.078;2022-11-18T06:35:27;34.17;;;21.90;;
21402;SDS011;10862;51.886;17.078;2022-11-18T06:37:53;32.13;;;21.60;;
21402;SDS011;10862;51.886;17.078;2022-11-18T06:40:18;29.03;;;20.37;;
21402;SDS011;10862;51.886;17.078;2022-11-18T06:42:44;30.90;;;22.97;;
21402;SDS011;10862;51.886;17.078;2022-11-18T06:45:28;44.37;;;24.87;;
21402;SDS011;10862;51.886;17.078;2022-11-18T06:47:57;31.13;;;20.80;;
21402;SDS011;10862;51.886;17.078;2022-11-18T06:50:24;27.60;;;20.33;;
21402;SDS011;10862;51.886;17.078;2022-11-18T06:52:49;25.57;;;18.83;;
21402;SDS011;10862;51.886;17.078;2022-11-18T06:55:15;24.77;;;20.43;;
21402;SDS011;10862;51.886;17.078;2022-11-18T06:57:40;30.80;;;20.63;;
21402;SDS011;10862;51.886;17.078;2022-11-18T07:00:06;28.43;;;20.07;;
21402;SDS011;10862;51.886;17.078;2022-11-18T07:02:34;37.20;;;21.80;;
21402;SDS011;10862;51.886;17.078;2022-11-18T07:05:00;51.67;;;26.13;;
21402;SDS011;10862;51.886;17.078;2022-11-18T07:07:26;29.47;;;21.93;;
21402;SDS011;10862;51.886;17.078;2022-11-18T07:09:51;31.40;;;22.50;;
21402;SDS011;10862;51.886;17.078;2022-11-18T07:12:17;32.60;;;22.63;;
21402;SDS011;10862;51.886;17.078;2022-11-18T07:14:42;33.60;;;23.80;;
21402;SDS011;10862;51.886;17.078;2022-11-18T07:17:08;29.33;;;18.90;;
21402;SDS011;10862;51.886;17.078;2022-11-18T07:19:33;30.00;;;21.80;;
21402;SDS011;10862;51.886;17.078;2022-11-18T07:21:59;27.83;;;19.83;;
21402;SDS011;10862;51.886;17.078;2022-11-18T07:24:25;34.03;;;22.47;;
21402;SDS011;10862;51.886;17.078;2022-11-18T07:26:51;23.60;;;19.03;;
21402;SDS011;10862;51.886;17.078;2022-11-18T07:29:18;36.27;;;19.73;;
21402;SDS011;10862;51.886;17.078;2022-11-18T07:31:43;27.30;;;18.87;;
21402;SDS011;10862;51.886;17.078;2022-11-18T07:34:09;25.47;;;20.10;;
21402;SDS011;10862;51.886;17.078;2022-11-18T07:36:36;26.37;;;19.87;;
21402;SDS011;10862;51.886;17.078;2022-11-18T07:39:02;28.83;;;20.57;;
21402;SDS011;10862;51.886;17.078;2022-11-18T07:41:29;28.87;;;20.93;;
21402;SDS011;10862;51.886;17.078;2022-11-18T07:43:56;28.90;;;18.43;;
21402;SDS011;10862;51.886;17.078;2022-11-18T07:46:24;23.33;;;18.80;;
21402;SDS011;10862;51.886;17.078;2022-11-18T07:49:00;27.90;;;19.40;;
21402;SDS011;10862;51.886;17.078;2022-11-18T07:51:29;28.83;;;20.57;;
21402;SDS011;10862;51.886;17.078;2022-11-18T07:53:57;30.70;;;21.87;;
21402;SDS011;10862;51.886;17.078;2022-11-18T07:56:23;35.83;;;21.47;;
21402;SDS011;10862;51.886;17.078;2022-11-18T07:58:52;35.83;;;22.00;;
21402;SDS011;10862;51.886;17.078;2022-11-18T08:01:19;35.30;;;21.57;;
21402;SDS011;10862;51.886;17.078;2022-11-18T08:03:46;37.93;;;23.90;;
21402;SDS011;10862;51.886;17.078;2022-11-18T08:06:13;57.53;;;32.57;;
21402;SDS011;10862;51.886;17.078;2022-11-18T08:08:40;38.37;;;23.00;;
21402;SDS011;10862;51.886;17.078;2022-11-18T08:11:07;46.03;;;24.93;;
21402;SDS011;10862;51.886;17.078;2022-11-18T08:13:34;43.13;;;22.83;;
21402;SDS011;10862;51.886;17.078;2022-11-18T08:16:00;37.73;;;23.73;;
21402;SDS011;10862;51.886;17.078;2022-11-18T08:18:27;46.33;;;26.70;;
21402;SDS011;10862;51.886;17.078;2022-11-18T08:20:54;37.67;;;23.00;;
21402;SDS011;10862;51.886;17.078;2022-11-18T08:23:19;47.90;;;27.83;;
21402;SDS011;10862;51.886;17.078;2022-11-18T08:25:45;42.13;;;25.57;;
21402;SDS011;10862;51.886;17.078;2022-11-18T08:28:11;52.73;;;29.90;;
21402;SDS011;10862;51.886;17.078;2022-11-18T08:30:38;46.63;;;27.90;;
21402;SDS011;10862;51.886;17.078;2022-11-18T08:33:04;43.97;;;22.63;;
21402;SDS011;10862;51.886;17.078;2022-11-18T08:35:30;43.07;;;25.97;;
21402;SDS011;10862;51.886;17.078;2022-11-18T08:37:57;37.97;;;25.27;;
21402;SDS011;10862;51.886;17.078;2022-11-18T08:40:22;113.07;;;59.53;;
21402;SDS011;10862;51.886;17.078;2022-11-18T08:42:48;133.27;;;68.60;;
21402;SDS011;10862;51.886;17.078;2022-11-18T08:45:14;162.17;;;77.17;;
21402;SDS011;10862;51.886;17.078;2022-11-18T08:47:39;78.00;;;38.23;;
21402;SDS011;10862;51.886;17.078;2022-11-18T08:50:06;114.17;;;48.40;;
21402;SDS011;10862;51.886;17.078;2022-11-18T08:52:32;65.57;;;31.70;;
21402;SDS011;10862;51.886;17.078;2022-11-18T08:54:58;44.00;;;23.93;;
21402;SDS011;10862;51.886;17.078;2022-11-18T08:57:24;67.37;;;25.40;;
21402;SDS011;10862;51.886;17.078;2022-11-18T08:59:49;106.60;;;57.97;;
21402;SDS011;10862;51.886;17.078;2022-11-18T09:02:18;172.53;;;98.57;;
21402;SDS011;10862;51.886;17.078;2022-11-18T09:04:46;62.90;;;34.63;;
21402;SDS011;10862;51.886;17.078;2022-11-18T09:07:12;76.70;;;31.60;;
21402;SDS011;10862;51.886;17.078;2022-11-18T09:09:38;58.83;;;29.03;;
21402;SDS011;10862;51.886;17.078;2022-11-18T09:12:03;47.53;;;27.33;;
21402;SDS011;10862;51.886;17.078;2022-11-18T09:14:29;59.07;;;28.97;;
21402;SDS011;10862;51.886;17.078;2022-11-18T09:16:55;51.20;;;25.60;;
21402;SDS011;10862;51.886;17.078;2022-11-18T09:19:20;38.27;;;23.13;;
21402;SDS011;10862;51.886;17.078;2022-11-18T09:21:46;34.80;;;25.17;;
21402;SDS011;10862;51.886;17.078;2022-11-18T09:24:12;40.20;;;22.10;;
21402;SDS011;10862;51.886;17.078;2022-11-18T09:26:37;42.07;;;21.67;;
21402;SDS011;10862;51.886;17.078;2022-11-18T09:29:03;38.60;;;23.90;;
21402;SDS011;10862;51.886;17.078;2022-11-18T09:31:29;40.73;;;24.07;;
21402;SDS011;10862;51.886;17.078;2022-11-18T09:33:54;38.13;;;21.30;;
21402;SDS011;10862;51.886;17.078;2022-11-18T09:36:23;31.27;;;20.80;;
21402;SDS011;10862;51.886;17.078;2022-11-18T09:38:49;33.57;;;19.03;;
21402;SDS011;10862;51.886;17.078;2022-11-18T09:46:58;27.87;;;17.43;;
21402;SDS011;10862;51.886;17.078;2022-11-18T09:49:41;28.57;;;17.43;;
21402;SDS011;10862;51.886;17.078;2022-11-18T09:52:18;19.90;;;16.80;;
21402;SDS011;10862;51.886;17.078;2022-11-18T09:54:48;18.60;;;16.70;;
21402;SDS011;10862;51.886;17.078;2022-11-18T09:57:15;22.37;;;18.03;;
21402;SDS011;10862;51.886;17.078;2022-11-18T09:59:44;29.53;;;18.37;;
21402;SDS011;10862;51.886;17.078;2022-11-18T10:05:25;23.20;;;17.07;;
21402;SDS011;10862;51.886;17.078;2022-11-18T10:15:58;33.27;;;21.17;;
21402;SDS011;10862;51.886;17.078;2022-11-18T10:23:51;19.50;;;17.47;;
21402;SDS011;10862;51.886;17.078;2022-11-18T10:26:32;29.53;;;20.10;;
21402;SDS011;10862;51.886;17.078;2022-11-18T10:29:02;18.93;;;16.80;;
21402;SDS011;10862;51.886;17.078;2022-11-18T10:31:31;20.97;;;16.43;;
21402;SDS011;10862;51.886;17.078;2022-11-18T10:34:03;20.50;;;18.47;;
21402;SDS011;10862;51.886;17.078;2022-11-18T10:36:30;26.60;;;22.73;;
21402;SDS011;10862;51.886;17.078;2022-11-18T10:39:11;18.50;;;16.33;;
21402;SDS011;10862;51.886;17.078;2022-11-18T10:41:39;33.67;;;20.30;;
21402;SDS011;10862;51.886;17.078;2022-11-18T10:44:29;52.23;;;24.40;;
21402;SDS011;10862;51.886;17.078;2022-11-18T10:47:20;30.70;;;17.83;;
21402;SDS011;10862;51.886;17.078;2022-11-18T10:49:59;42.87;;;21.97;;
21402;SDS011;10862;51.886;17.078;2022-11-18T10:52:27;23.27;;;18.03;;
21402;SDS011;10862;51.886;17.078;2022-11-18T10:55:07;31.80;;;23.93;;
21402;SDS011;10862;51.886;17.078;2022-11-18T10:57:43;71.37;;;30.40;;
21402;SDS011;10862;51.886;17.078;2022-11-18T11:00:51;36.27;;;19.57;;
21402;SDS011;10862;51.886;17.078;2022-11-18T11:02:58;22.77;;;17.10;;
21402;SDS011;10862;51.886;17.078;2022-11-18T11:05:24;94.90;;;34.07;;
21402;SDS011;10862;51.886;17.078;2022-11-18T11:08:01;40.57;;;24.43;;
21402;SDS011;10862;51.886;17.078;2022-11-18T11:10:43;27.83;;;19.50;;
21402;SDS011;10862;51.886;17.078;2022-11-18T11:13:23;21.23;;;17.47;;
21402;SDS011;10862;51.886;17.078;2022-11-18T11:15:52;56.37;;;24.27;;
21402;SDS011;10862;51.886;17.078;2022-11-18T11:18:23;20.37;;;17.97;;
21402;SDS011;10862;51.886;17.078;2022-11-18T11:23:42;18.40;;;15.63;;
21402;SDS011;10862;51.886;17.078;2022-11-18T11:28:56;35.07;;;20.43;;
21402;SDS011;10862;51.886;17.078;2022-11-18T11:34:19;31.87;;;20.30;;
21402;SDS011;10862;51.886;17.078;2022-11-18T11:42:38;20.43;;;18.30;;
21402;SDS011;10862;51.886;17.078;2022-11-18T11:45:18;17.73;;;16.17;;
21402;SDS011;10862;51.886;17.078;2022-11-18T11:48:04;18.13;;;16.77;;
21402;SDS011;10862;51.886;17.078;2022-11-18T12:04:35;22.53;;;19.83;;
21402;SDS011;10862;51.886;17.078;2022-11-18T12:07:17;17.27;;;15.70;;
21402;SDS011;10862;51.886;17.078;2022-11-18T12:10:01;19.63;;;16.23;;
21402;SDS011;10862;51.886;17.078;2022-11-18T12:12:51;20.90;;;18.87;;
21402;SDS011;10862;51.886;17.078;2022-11-18T12:20:49;25.07;;;20.30;;
21402;SDS011;10862;51.886;17.078;2022-11-18T12:23:20;20.47;;;16.23;;
21402;SDS011;10862;51.886;17.078;2022-11-18T12:25:54;22.53;;;19.67;;
21402;SDS011;10862;51.886;17.078;2022-11-18T12:28:36;23.50;;;20.77;;
21402;SDS011;10862;51.886;17.078;2022-11-18T12:36:09;25.70;;;20.70;;
21402;SDS011;10862;51.886;17.078;2022-11-18T12:38:48;18.80;;;17.17;;
21402;SDS011;10862;51.886;17.078;2022-11-18T12:44:23;20.90;;;17.20;;
21402;SDS011;10862;51.886;17.078;2022-11-18T12:51:48;23.93;;;19.10;;
21402;SDS011;10862;51.886;17.078;2022-11-18T12:54:20;23.73;;;18.23;;
21402;SDS011;10862;51.886;17.078;2022-11-18T12:56:59;20.53;;;18.67;;
21402;SDS011;10862;51.886;17.078;2022-11-18T12:59:34;20.13;;;17.10;;
21402;SDS011;10862;51.886;17.078;2022-11-18T13:02:02;22.23;;;18.83;;
21402;SDS011;10862;51.886;17.078;2022-11-18T13:05:08;24.73;;;20.53;;
21402;SDS011;10862;51.886;17.078;2022-11-18T13:07:39;34.47;;;24.07;;
21402;SDS011;10862;51.886;17.078;2022-11-18T13:10:29;76.10;;;49.37;;
21402;SDS011;10862;51.886;17.078;2022-11-18T13:12:57;27.97;;;19.67;;
21402;SDS011;10862;51.886;17.078;2022-11-18T13:15:23;54.87;;;36.33;;
21402;SDS011;10862;51.886;17.078;2022-11-18T13:18:13;40.53;;;25.97;;
21402;SDS011;10862;51.886;17.078;2022-11-18T13:20:41;42.17;;;25.23;;
21402;SDS011;10862;51.886;17.078;2022-11-18T13:26:05;19.53;;;17.50;;
21402;SDS011;10862;51.886;17.078;2022-11-18T13:34:23;23.67;;;19.03;;
21402;SDS011;10862;51.886;17.078;2022-11-18T13:36:50;33.50;;;21.17;;
21402;SDS011;10862;51.886;17.078;2022-11-18T13:39:19;29.97;;;20.63;;
21402;SDS011;10862;51.886;17.078;2022-11-18T13:41:47;20.73;;;17.30;;
21402;SDS011;10862;51.886;17.078;2022-11-18T13:44:26;16.63;;;15.07;;
21402;SDS011;10862;51.886;17.078;2022-11-18T13:46:55;23.80;;;19.53;;
21402;SDS011;10862;51.886;17.078;2022-11-18T13:49:41;32.67;;;21.03;;
21402;SDS011;10862;51.886;17.078;2022-11-18T13:52:10;31.53;;;23.77;;
21402;SDS011;10862;51.886;17.078;2022-11-18T13:54:40;31.13;;;20.23;;
21402;SDS011;10862;51.886;17.078;2022-11-18T13:57:12;37.10;;;24.70;;
21402;SDS011;10862;51.886;17.078;2022-11-18T13:59:41;31.77;;;23.67;;
21402;SDS011;10862;51.886;17.078;2022-11-18T14:02:07;32.23;;;22.10;;
21402;SDS011;10862;51.886;17.078;2022-11-18T14:04:36;40.17;;;25.37;;
21402;SDS011;10862;51.886;17.078;2022-11-18T14:07:54;34.30;;;24.63;;
21402;SDS011;10862;51.886;17.078;2022-11-18T14:10:01;24.97;;;20.10;;
21402;SDS011;10862;51.886;17.078;2022-11-18T14:12:30;29.77;;;20.37;;
21402;SDS011;10862;51.886;17.078;2022-11-18T14:17:48;30.37;;;24.13;;
21402;SDS011;10862;51.886;17.078;2022-11-18T14:20:21;281.80;;;122.33;;
21402;SDS011;10862;51.886;17.078;2022-11-18T14:22:50;62.13;;;40.23;;
21402;SDS011;10862;51.886;17.078;2022-11-18T14:25:31;185.77;;;98.57;;
21402;SDS011;10862;51.886;17.078;2022-11-18T14:28:10;122.87;;;76.63;;
21402;SDS011;10862;51.886;17.078;2022-11-18T14:30:57;26.77;;;23.00;;
21402;SDS011;10862;51.886;17.078;2022-11-18T14:33:24;23.13;;;20.50;;
21402;SDS011;10862;51.886;17.078;2022-11-18T14:38:29;85.57;;;35.70;;
21402;SDS011;10862;51.886;17.078;2022-11-18T14:41:03;155.33;;;57.60;;
21402;SDS011;10862;51.886;17.078;2022-11-18T14:43:30;115.47;;;47.80;;
21402;SDS011;10862;51.886;17.078;2022-11-18T14:45:57;85.03;;;40.43;;
21402;SDS011;10862;51.886;17.078;2022-11-18T14:48:25;44.67;;;24.43;;
21402;SDS011;10862;51.886;17.078;2022-11-18T14:50:52;23.80;;;19.20;;
21402;SDS011;10862;51.886;17.078;2022-11-18T14:53:18;21.83;;;19.27;;
21402;SDS011;10862;51.886;17.078;2022-11-18T14:55:44;35.30;;;25.13;;
21402;SDS011;10862;51.886;17.078;2022-11-18T14:58:13;33.93;;;22.23;;
21402;SDS011;10862;51.886;17.078;2022-11-18T15:00:43;62.57;;;33.23;;
21402;SDS011;10862;51.886;17.078;2022-11-18T15:03:10;34.73;;;20.80;;
21402;SDS011;10862;51.886;17.078;2022-11-18T15:05:36;104.13;;;38.90;;
21402;SDS011;10862;51.886;17.078;2022-11-18T15:08:02;43.60;;;27.73;;
21402;SDS011;10862;51.886;17.078;2022-11-18T15:10:28;30.57;;;23.83;;
21402;SDS011;10862;51.886;17.078;2022-11-18T15:12:54;108.67;;;45.73;;
21402;SDS011;10862;51.886;17.078;2022-11-18T15:15:20;60.03;;;28.77;;
21402;SDS011;10862;51.886;17.078;2022-11-18T15:17:45;118.97;;;42.50;;
21402;SDS011;10862;51.886;17.078;2022-11-18T15:20:14;96.67;;;43.67;;
21402;SDS011;10862;51.886;17.078;2022-11-18T15:22:42;66.83;;;32.00;;
21402;SDS011;10862;51.886;17.078;2022-11-18T15:25:08;99.97;;;42.23;;
21402;SDS011;10862;51.886;17.078;2022-11-18T15:27:34;79.13;;;31.40;;
21402;SDS011;10862;51.886;17.078;2022-11-18T15:30:00;146.13;;;62.47;;
21402;SDS011;10862;51.886;17.078;2022-11-18T15:32:26;71.30;;;34.17;;
21402;SDS011;10862;51.886;17.078;2022-11-18T15:34:52;87.53;;;42.33;;
21402;SDS011;10862;51.886;17.078;2022-11-18T15:37:17;65.70;;;34.13;;
21402;SDS011;10862;51.886;17.078;2022-11-18T15:39:43;124.53;;;54.07;;
21402;SDS011;10862;51.886;17.078;2022-11-18T15:42:09;106.47;;;49.30;;
21402;SDS011;10862;51.886;17.078;2022-11-18T15:44:35;107.50;;;50.13;;
21402;SDS011;10862;51.886;17.078;2022-11-18T15:47:01;125.23;;;49.87;;
21402;SDS011;10862;51.886;17.078;2022-11-18T15:49:27;140.77;;;61.97;;
21402;SDS011;10862;51.886;17.078;2022-11-18T15:51:53;227.83;;;83.83;;
21402;SDS011;10862;51.886;17.078;2022-11-18T15:54:18;159.33;;;67.90;;
21402;SDS011;10862;51.886;17.078;2022-11-18T15:56:44;237.90;;;100.20;;
21402;SDS011;10862;51.886;17.078;2022-11-18T15:59:10;182.33;;;79.20;;
21402;SDS011;10862;51.886;17.078;2022-11-18T16:01:38;223.03;;;101.67;;
21402;SDS011;10862;51.886;17.078;2022-11-18T16:04:05;236.53;;;105.53;;
21402;SDS011;10862;51.886;17.078;2022-11-18T16:06:32;318.50;;;121.77;;
21402;SDS011;10862;51.886;17.078;2022-11-18T16:08:58;282.40;;;100.70;;
21402;SDS011;10862;51.886;17.078;2022-11-18T16:11:24;262.17;;;102.20;;
21402;SDS011;10862;51.886;17.078;2022-11-18T16:14:09;156.80;;;68.87;;
21402;SDS011;10862;51.886;17.078;2022-11-18T16:16:36;187.13;;;82.20;;
21402;SDS011;10862;51.886;17.078;2022-11-18T16:19:04;173.20;;;90.83;;